Station info - map view · info · telemetry · weather · raw · status · beacons · messages · bulletins · browse · moving · my account
Callsign, ship name or locator: Clear       
It is possible to search using wildcards (*?) after a prefix. Example: OH*
APRS station K6VN-9 - show graphs
Map loading...
Mic-E message: In service
Location: 34°27.56' N 118°32.47' W - locator DM04RL50BF - show map - static map
4.0 miles East bearing 74° from Valencia, Los Angeles County, California, United States [?]
4.7 miles North bearing 1° from Santa Clarita, Los Angeles County, California, United States
32.8 miles Northwest bearing 329° from Los Angeles, Los Angeles County, California, United States
51.9 miles Northwest bearing 337° from Long Beach, Los Angeles County, California, United States
Last position: 2018-10-01 22:29:17 EDT (15d 23h1m ago)
2018-10-01 19:29:17 PDT local time at Valencia, United States [?]
Altitude: 1437 ft
Course: 180°
Speed: 16 MPH
Device: Kenwood: TM-D710 (rig)
Last path: K6VN-9>S4RWUV via WIDE1-1,WIDE2-1,qAR,N6LXX-10 (good)
Positions stored: 18552
Other SSIDs: K6VN-7
Stations near current position of K6VN-9 - show more
callsign distance last heard - EDT      callsign distance last heard - EDT
KD6AJG1.2 miles 166°2018-10-17 21:11:06 KI6KSX1.2 miles 166°2018-10-01 12:45:03
FW21321.4 miles 145°2018-10-17 21:15:44 DW43901.6 miles 194°2018-10-17 02:36:27
K1GGS-92.1 miles 198°2018-10-10 15:11:14 KM6VWP3.6 miles 252°2018-10-07 10:29:21
K8PTR3.6 miles 187°2018-10-14 15:43:09 K6SYN3.8 miles 108°2018-09-28 19:15:45
W6TMI4.4 miles 181°2018-09-19 11:41:31 K2JPL-N4.7 miles 181°2018-09-29 15:31:56
W7GLG-105.2 miles 142°2018-10-12 20:46:13 KC6ESW-75.8 miles 116°2018-10-09 20:43:27
KM6VXX6.1 miles 191°2018-10-05 15:14:41 WD6FOX B6.2 miles 126°2018-09-27 23:12:44
WD6FOX-B6.2 miles 126°2018-09-27 23:12:54 WD6FOX-76.3 miles 127°2018-09-28 19:42:03
KM6VTS B6.4 miles 203°2018-10-02 23:26:54 KM6VTS-B6.4 miles 203°2018-10-02 23:27:04
K6WPT B6.4 miles 203°2018-10-17 16:32:13 K6WPT-B6.4 miles 203°2018-10-17 16:32:23
Stations which heard K6VN-9 directly on radio –
callsign pkts first heard - EDT last heard longest (tx => rx) longest at - EDT
W6BXN-3 1 2018-10-01 20:21:42 2018-10-01 20:21:42 CM95WQ > CM97XM 127.2 miles 2° 2018-10-01 20:21:42
WR6ABD 43 2018-10-01 13:27:54 2018-10-01 18:17:17 CM96FO > CM97BC 37.4 miles 336° 2018-10-01 18:17:17
K6IXA-3 18 2018-10-01 20:12:14 2018-10-01 21:56:26 DM04OR > DM06NR 137.3 miles 359° 2018-10-01 21:56:26
K6JE-3 11 2018-10-01 17:51:31 2018-10-01 18:37:03 CM96IJ > CM96FS 27.7 miles 337° 2018-10-01 18:37:03
KF6RAL-15 9 2018-10-01 21:48:22 2018-10-01 22:25:16 DM04RK > DM04PR 22.4 miles 338° 2018-10-01 22:23:10
W6SCE-10 9 2018-10-01 21:51:02 2018-10-01 22:26:56 DM04NT > DM04QH 36.6 miles 154° 2018-10-01 21:51:02
WA6YLB-5 4 2018-10-01 20:19:39 2018-10-01 21:02:52 CM95VR > DM05RU 90.2 miles 83° 2018-10-01 20:19:39
WA6LDQ-3 2 2018-10-01 21:06:55 2018-10-01 21:41:15 DM05HJ > DM05RD 48.2 miles 109° 2018-10-01 21:06:55
NI6M-2 1 2018-10-01 20:33:25 2018-10-01 20:33:25 DM05AO > DM07HB 103.7 miles 16° 2018-10-01 20:33:25
KA6PTJ-3 16 2018-10-01 20:31:22 2018-10-01 21:35:33 DM05AO > DM05SB 93.2 miles 114° 2018-10-01 20:31:22
KE6AFE-2 9 2018-10-01 13:30:00 2018-10-01 17:58:27 CM96DS > CM86XX 21.9 miles 317° 2018-10-01 17:58:27
KI6PAU-3 4 2018-10-01 13:43:13 2018-10-01 15:38:37 CM86XX > CM96BH 47.8 miles 172° 2018-10-01 13:43:13
K6BJ-3 41 2018-10-01 13:32:00 2018-10-01 18:11:39 CM96EQ > CM96AX 29.5 miles 318° 2018-10-01 18:11:39
KF6NMZ-4 1 2018-10-01 22:18:20 2018-10-01 22:18:20 DM04QK > DM04SG 16.5 miles 146° 2018-10-01 22:18:20
WB9VXY-5 14 2018-10-01 19:27:22 2018-10-01 20:10:34 CM95UQ > CM95PJ 31.0 miles 226° 2018-10-01 20:10:34
N6LXX-10 9 2018-10-01 21:52:59 2018-10-01 22:28:47 DM04OS > DM04UJ 40.1 miles 134° 2018-10-01 21:52:59

Only position packets which were originated by the station are shown here. The range statistics show some extra long hops, because some digipeaters do not correctly add themselves to the digipeater path. Please check the raw packets.
About this site
This page shows real-time information collected from the Automatic Position Reporting System Internet network (APRS-IS). APRS is used by amateur (ham) radio operators to transmit real-time position information, weather data, telemetry and messages over the radio. A vehicle equipped with a GPS receiver, a VHF transmitter or HF transceiver and a small computer device called a tracker transmits it's location, speed and course in a small data packet, which is then received by a nearby iGate receiving site which forwards the packet on the Internet. Systems connected to the Internet can send information on the APRS-IS without a radio transmitter, or collect and display information transmitted anywhere in the world.
FAQ · Blog · Discussion group · Linking to aprs.fi · AIS sites · Service status · Database statistics · Advertising on aprs.fi · Technical details · API · Change log · Planned changes · Credits and thanks · Terms Of Service · iPhone/iPad APRS